Terminal Aerodrome Forecast
Issued by NWS

Home | Current Version | Previous Version | Text Only | Print | Product List | Glossary On
Versions: 1 2 3 4 5 6 7 8 9 10 11 12 13 14 15 16 17 18 19 20 21 22 23 24 25 26 27 28 29
000
FTUS45 KBOI 222334
TAFMYL
TAF
KMYL 222334Z 2300/2324 34010KT P6SM VCTS FEW050CB BKN070
      TEMPO 2300/2303 VRB12KT 6SM TSRA OVC050CB
     FM230600 32005KT P6SM SCT070 BKN150
     FM231500 32008KT P6SM VCSH BKN070 OVC120
     FM231700 32008G18KT P6SM -SHRA BKN040 OVC070=

USA.gov is the U.S. government's official web portal to all federal, state and local government web resources and services.